Flight Track Log - Related Links

Times and Time Zones

All times are in EDT time to prevent confusion due to time zone crossing. See the EGF4269 flight status page for this flight to view local times or setup timezone preferences in your user account.

Time Position Orientation Groundspeed Altitude Reporting Facility
EDT Latitude Longitude Course Direction KTS MPH feet Rate Location/Type
Sat 08:31:24 PM 42.0011 -87.8706 77° East 158 182 15,000  Level Chicago Center
Sat 08:32:25 PM 42.0042 -87.8111 86° East 197 227 3,500 -4,230 Descending Chicago Center
Sat 08:33:00 PM 42.0361 -87.5197 83° East  Level FlightAware Approximate
Sat 08:33:26 PM 42.0111 -87.7097 85° East 225 259 6,400  Level Chicago Center
Sat 08:34:00 PM 42.0481 -87.3876 83° East  Level FlightAware Approximate
Sat 08:34:28 PM 42.0242 -87.6200 79° East 245 282 8,600  Level Chicago Center
Sat 08:35:00 PM 42.0669 -87.2571 78° East  Level FlightAware Approximate
Sat 08:35:29 PM 42.0411 -87.5228 77° East 265 305 10,800  Level Chicago Center
Sat 08:36:00 PM 42.0872 -87.1268 77° East  Level FlightAware Approximate
Sat 08:36:30 PM 42.0597 -87.4228 76° East 275 316 13,000  Level Chicago Center
Sat 08:37:31 PM 42.0750 -87.3111 80° East 302 348 13,800 787 Climbing Chicago Center
Sat 08:38:32 PM 42.0942 -87.1856 78° East 339 390 14,600 585 Climbing Chicago Center
Sat 08:39:34 PM 42.1139 -87.0486 79° East 369 425 15,000 244 Climbing Chicago Center
Sat 08:40:35 PM 42.1175 -86.9019 88° East 388 447 15,100 -295 Climbing Chicago Center
Sat 08:41:36 PM 42.1233 -86.7603 87° East 383 441 14,400 -1,230 Descending Chicago Center
Sat 08:42:37 PM 42.1289 -86.5903 87° East 390 449 12,600 -1,475 Descending Chicago Center
Sat 08:43:38 PM 42.1336 -86.4494 87° East 381 438 11,400 -780 Descending Chicago Center
Sat 08:44:40 PM 42.1381 -86.3103 87° East 374 430 11,000 -537 Descending Chicago Center
Sat 08:45:41 PM 42.1419 -86.1819 88° East 350 403 10,300 -934 Descending Chicago Center
Sat 08:46:42 PM 42.1511 -86.0733 83° East 299 344 9,100 -1,525 Descending Chicago Center
Sat 08:47:43 PM 42.1672 -85.9742 78° East 275 316 7,200 -1,869 Descending Chicago Center
Sat 08:48:44 PM 42.1950 -85.8817 68° East 267 307 5,300 -1,869 Descending Chicago Center

Login

Don't have an account? Register now (free) for customized features, flight alerts, and more!